sensor_id;sensor_type;location;lat;lon;timestamp;pressure;altitude;pressure_sealevel;temperature;humidity
65800;BME280;52544;48.116;11.660;2023-02-22T00:00:25;95568.03;;;4.36;87.62
65800;BME280;52544;48.116;11.660;2023-02-22T00:03:12;95567.75;;;4.26;88.09
65800;BME280;52544;48.116;11.660;2023-02-22T00:05:40;95569.91;;;4.48;87.39
65800;BME280;52544;48.116;11.660;2023-02-22T00:08:09;95571.69;;;4.48;86.22
65800;BME280;52544;48.116;11.660;2023-02-22T00:10:36;95561.66;;;4.55;85.08
65800;BME280;52544;48.116;11.660;2023-02-22T00:13:07;95559.13;;;4.53;85.32
65800;BME280;52544;48.116;11.660;2023-02-22T00:15:33;95561.00;;;4.51;85.40
65800;BME280;52544;48.116;11.660;2023-02-22T00:17:58;95556.50;;;4.53;84.96
65800;BME280;52544;48.116;11.660;2023-02-22T00:20:24;95548.66;;;4.39;84.82
65800;BME280;52544;48.116;11.660;2023-02-22T00:22:50;95561.47;;;4.43;85.29
65800;BME280;52544;48.116;11.660;2023-02-22T00:25:18;95555.75;;;4.37;85.64
65800;BME280;52544;48.116;11.660;2023-02-22T00:27:45;95554.00;;;4.09;86.35
65800;BME280;52544;48.116;11.660;2023-02-22T00:30:19;95557.09;;;4.30;86.63
65800;BME280;52544;48.116;11.660;2023-02-22T00:32:45;95556.16;;;4.16;85.93
65800;BME280;52544;48.116;11.660;2023-02-22T00:35:15;95554.66;;;4.26;86.96
65800;BME280;52544;48.116;11.660;2023-02-22T00:37:41;95557.16;;;4.28;86.91
65800;BME280;52544;48.116;11.660;2023-02-22T00:40:09;95551.84;;;4.30;86.29
65800;BME280;52544;48.116;11.660;2023-02-22T00:42:35;95551.28;;;4.39;85.88
65800;BME280;52544;48.116;11.660;2023-02-22T00:45:00;95550.44;;;4.24;85.46
65800;BME280;52544;48.116;11.660;2023-02-22T00:47:26;95556.47;;;3.82;87.71
65800;BME280;52544;48.116;11.660;2023-02-22T00:49:52;95555.06;;;3.90;88.62
65800;BME280;52544;48.116;11.660;2023-02-22T00:52:17;95558.75;;;4.02;88.14
65800;BME280;52544;48.116;11.660;2023-02-22T00:54:43;95544.91;;;4.14;87.17
65800;BME280;52544;48.116;11.660;2023-02-22T00:57:08;95546.31;;;4.20;86.23
65800;BME280;52544;48.116;11.660;2023-02-22T00:59:34;95536.38;;;3.82;87.38
65800;BME280;52544;48.116;11.660;2023-02-22T01:01:59;95542.09;;;3.89;87.92
65800;BME280;52544;48.116;11.660;2023-02-22T01:04:24;95541.53;;;3.98;87.69
65800;BME280;52544;48.116;11.660;2023-02-22T01:06:50;95534.44;;;4.00;86.69
65800;BME280;52544;48.116;11.660;2023-02-22T01:09:15;95535.47;;;3.97;86.76
65800;BME280;52544;48.116;11.660;2023-02-22T01:11:41;95535.84;;;4.06;86.64
65800;BME280;52544;48.116;11.660;2023-02-22T01:14:06;95533.97;;;4.08;85.66
65800;BME280;52544;48.116;11.660;2023-02-22T01:16:34;95537.13;;;3.98;85.75
65800;BME280;52544;48.116;11.660;2023-02-22T01:19:00;95534.22;;;3.89;86.33
65800;BME280;52544;48.116;11.660;2023-02-22T01:21:25;95535.06;;;3.75;86.41
65800;BME280;52544;48.116;11.660;2023-02-22T01:23:51;95536.19;;;3.71;87.13
65800;BME280;52544;48.116;11.660;2023-02-22T01:26:16;95529.91;;;3.73;86.17
65800;BME280;52544;48.116;11.660;2023-02-22T01:28:42;95532.63;;;3.72;86.71
65800;BME280;52544;48.116;11.660;2023-02-22T01:31:07;95519.50;;;3.58;87.31
65800;BME280;52544;48.116;11.660;2023-02-22T01:33:33;95527.16;;;3.61;87.57
65800;BME280;52544;48.116;11.660;2023-02-22T01:35:58;95526.69;;;3.54;87.75
65800;BME280;52544;48.116;11.660;2023-02-22T01:38:24;95528.38;;;3.55;87.91
65800;BME280;52544;48.116;11.660;2023-02-22T01:40:50;95524.81;;;3.56;88.23
65800;BME280;52544;48.116;11.660;2023-02-22T01:43:28;95525.47;;;3.60;87.73
65800;BME280;52544;48.116;11.660;2023-02-22T01:46:02;95530.53;;;3.63;87.21
65800;BME280;52544;48.116;11.660;2023-02-22T01:51:01;95524.75;;;3.58;87.64
65800;BME280;52544;48.116;11.660;2023-02-22T01:53:36;95526.69;;;3.54;86.82
65800;BME280;52544;48.116;11.660;2023-02-22T01:56:03;95520.53;;;3.55;86.90
65800;BME280;52544;48.116;11.660;2023-02-22T01:58:33;95510.75;;;3.29;87.53
65800;BME280;52544;48.116;11.660;2023-02-22T02:00:59;95518.53;;;3.14;89.17
65800;BME280;52544;48.116;11.660;2023-02-22T02:03:28;95521.44;;;2.94;90.89
65800;BME280;52544;48.116;11.660;2023-02-22T02:05:58;95511.41;;;3.02;91.91
65800;BME280;52544;48.116;11.660;2023-02-22T02:08:37;95508.00;;;3.16;90.73
65800;BME280;52544;48.116;11.660;2023-02-22T02:11:06;95510.59;;;3.16;91.06
65800;BME280;52544;48.116;11.660;2023-02-22T02:13:32;95496.72;;;3.30;89.99
65800;BME280;52544;48.116;11.660;2023-02-22T02:15:58;95498.69;;;3.26;89.61
65800;BME280;52544;48.116;11.660;2023-02-22T02:18:25;95497.22;;;3.36;89.60
65800;BME280;52544;48.116;11.660;2023-02-22T02:26:28;95488.16;;;3.28;88.78
65800;BME280;52544;48.116;11.660;2023-02-22T02:32:02;95482.44;;;3.35;89.13
65800;BME280;52544;48.116;11.660;2023-02-22T02:34:40;95481.19;;;3.26;88.56
65800;BME280;52544;48.116;11.660;2023-02-22T02:37:21;95472.63;;;3.24;89.38
65800;BME280;52544;48.116;11.660;2023-02-22T02:39:53;95467.13;;;3.29;89.40
65800;BME280;52544;48.116;11.660;2023-02-22T02:42:26;95469.72;;;3.29;89.38
65800;BME280;52544;48.116;11.660;2023-02-22T02:45:03;95462.94;;;3.41;88.80
65800;BME280;52544;48.116;11.660;2023-02-22T02:47:33;95468.84;;;3.44;88.43
65800;BME280;52544;48.116;11.660;2023-02-22T02:52:32;95464.78;;;3.39;87.70
65800;BME280;52544;48.116;11.660;2023-02-22T02:54:58;95465.56;;;3.41;87.36
65800;BME280;52544;48.116;11.660;2023-02-22T02:57:25;95458.91;;;3.35;87.77
65800;BME280;52544;48.116;11.660;2023-02-22T02:59:50;95458.94;;;3.49;87.04
65800;BME280;52544;48.116;11.660;2023-02-22T03:02:26;95458.81;;;3.37;87.41
65800;BME280;52544;48.116;11.660;2023-02-22T03:05:10;95454.06;;;3.43;88.08
65800;BME280;52544;48.116;11.660;2023-02-22T03:08:05;95446.47;;;3.39;87.83
65800;BME280;52544;48.116;11.660;2023-02-22T03:15:52;95439.16;;;3.15;89.24
65800;BME280;52544;48.116;11.660;2023-02-22T03:21:22;95440.97;;;3.29;88.67
65800;BME280;52544;48.116;11.660;2023-02-22T03:24:06;95439.00;;;3.33;88.31
65800;BME280;52544;48.116;11.660;2023-02-22T03:27:08;95442.09;;;3.39;88.13
65800;BME280;52544;48.116;11.660;2023-02-22T03:29:39;95432.47;;;3.40;88.08
65800;BME280;52544;48.116;11.660;2023-02-22T03:32:10;95425.53;;;3.24;88.54
65800;BME280;52544;48.116;11.660;2023-02-22T03:34:44;95431.31;;;3.15;88.58
65800;BME280;52544;48.116;11.660;2023-02-22T03:37:17;95435.03;;;3.11;89.24
65800;BME280;52544;48.116;11.660;2023-02-22T03:39:46;95435.59;;;3.02;89.55
65800;BME280;52544;48.116;11.660;2023-02-22T03:42:17;95440.22;;;2.97;90.32
65800;BME280;52544;48.116;11.660;2023-02-22T03:44:45;95446.69;;;3.06;90.26
65800;BME280;52544;48.116;11.660;2023-02-22T03:47:17;95444.66;;;3.11;89.46
65800;BME280;52544;48.116;11.660;2023-02-22T03:49:50;95440.63;;;3.05;89.36
65800;BME280;52544;48.116;11.660;2023-02-22T03:52:16;95445.16;;;3.01;89.55
65800;BME280;52544;48.116;11.660;2023-02-22T03:54:42;95448.59;;;2.88;89.80
65800;BME280;52544;48.116;11.660;2023-02-22T03:59:39;95454.66;;;2.88;91.14
65800;BME280;52544;48.116;11.660;2023-02-22T04:02:05;95460.38;;;2.95;90.85
65800;BME280;52544;48.116;11.660;2023-02-22T04:04:30;95459.44;;;2.96;90.03
65800;BME280;52544;48.116;11.660;2023-02-22T04:06:56;95454.50;;;2.75;91.21
65800;BME280;52544;48.116;11.660;2023-02-22T04:09:21;95458.09;;;2.43;92.57
65800;BME280;52544;48.116;11.660;2023-02-22T04:11:47;95467.19;;;2.36;93.86
65800;BME280;52544;48.116;11.660;2023-02-22T04:14:13;95462.66;;;2.55;93.46
65800;BME280;52544;48.116;11.660;2023-02-22T04:16:38;95459.25;;;2.69;92.66
65800;BME280;52544;48.116;11.660;2023-02-22T04:19:04;95455.53;;;2.73;91.98
65800;BME280;52544;48.116;11.660;2023-02-22T04:21:30;95461.44;;;2.77;91.76
65800;BME280;52544;48.116;11.660;2023-02-22T04:23:58;95448.63;;;2.72;91.40
65800;BME280;52544;48.116;11.660;2023-02-22T04:26:23;95452.09;;;2.72;91.04
65800;BME280;52544;48.116;11.660;2023-02-22T04:28:49;95446.25;;;2.67;90.79
65800;BME280;52544;48.116;11.660;2023-02-22T04:31:15;95439.44;;;2.65;91.77
65800;BME280;52544;48.116;11.660;2023-02-22T04:33:40;95444.25;;;2.57;91.31
65800;BME280;52544;48.116;11.660;2023-02-22T04:36:06;95443.75;;;2.50;91.59
65800;BME280;52544;48.116;11.660;2023-02-22T04:38:31;95437.88;;;2.46;91.94
65800;BME280;52544;48.116;11.660;2023-02-22T04:40:57;95444.44;;;2.54;91.17
65800;BME280;52544;48.116;11.660;2023-02-22T04:43:22;95434.38;;;2.62;90.84
65800;BME280;52544;48.116;11.660;2023-02-22T04:45:47;95434.06;;;2.52;90.49
65800;BME280;52544;48.116;11.660;2023-02-22T04:48:13;95427.34;;;2.48;90.91
65800;BME280;52544;48.116;11.660;2023-02-22T04:50:38;95422.69;;;2.53;90.71
65800;BME280;52544;48.116;11.660;2023-02-22T04:53:04;95433.13;;;2.53;90.64
65800;BME280;52544;48.116;11.660;2023-02-22T04:55:30;95433.25;;;2.36;90.77
65800;BME280;52544;48.116;11.660;2023-02-22T04:57:55;95434.84;;;2.38;90.94
65800;BME280;52544;48.116;11.660;2023-02-22T05:00:22;95436.44;;;2.41;91.33
65800;BME280;52544;48.116;11.660;2023-02-22T05:02:48;95435.69;;;2.39;90.53
65800;BME280;52544;48.116;11.660;2023-02-22T05:05:16;95434.25;;;2.17;91.26
65800;BME280;52544;48.116;11.660;2023-02-22T05:07:42;95432.97;;;2.24;91.72
65800;BME280;52544;48.116;11.660;2023-02-22T05:10:08;95433.16;;;2.37;90.86
65800;BME280;52544;48.116;11.660;2023-02-22T05:12:34;95431.72;;;2.47;90.22
65800;BME280;52544;48.116;11.660;2023-02-22T05:15:00;95425.47;;;2.50;89.70
65800;BME280;52544;48.116;11.660;2023-02-22T05:17:25;95430.03;;;2.31;89.53
65800;BME280;52544;48.116;11.660;2023-02-22T05:19:51;95431.47;;;2.20;90.41
65800;BME280;52544;48.116;11.660;2023-02-22T05:22:17;95420.53;;;2.14;90.85
65800;BME280;52544;48.116;11.660;2023-02-22T05:24:42;95414.88;;;2.06;91.17
65800;BME280;52544;48.116;11.660;2023-02-22T05:27:08;95414.97;;;2.20;91.03
65800;BME280;52544;48.116;11.660;2023-02-22T05:29:33;95418.75;;;2.14;91.46
65800;BME280;52544;48.116;11.660;2023-02-22T05:31:59;95427.00;;;2.22;90.71
65800;BME280;52544;48.116;11.660;2023-02-22T05:34:26;95419.34;;;2.19;90.47
65800;BME280;52544;48.116;11.660;2023-02-22T05:36:52;95421.72;;;2.08;91.11
65800;BME280;52544;48.116;11.660;2023-02-22T05:39:17;95416.66;;;2.05;91.59
65800;BME280;52544;48.116;11.660;2023-02-22T05:41:43;95418.00;;;1.96;92.38
65800;BME280;52544;48.116;11.660;2023-02-22T05:44:08;95417.66;;;2.03;92.65
65800;BME280;52544;48.116;11.660;2023-02-22T05:46:33;95418.44;;;2.05;92.21
65800;BME280;52544;48.116;11.660;2023-02-22T05:48:59;95414.38;;;1.99;92.25
65800;BME280;52544;48.116;11.660;2023-02-22T05:51:25;95415.97;;;2.02;92.31
65800;BME280;52544;48.116;11.660;2023-02-22T05:53:51;95415.44;;;1.95;92.20
65800;BME280;52544;48.116;11.660;2023-02-22T05:56:24;95420.25;;;2.03;91.82
65800;BME280;52544;48.116;11.660;2023-02-22T05:58:50;95409.56;;;2.07;91.50
65800;BME280;52544;48.116;11.660;2023-02-22T06:01:15;95415.97;;;2.02;91.62
65800;BME280;52544;48.116;11.660;2023-02-22T06:03:41;95418.84;;;1.97;92.24
65800;BME280;52544;48.116;11.660;2023-02-22T06:06:06;95415.63;;;1.92;92.66
65800;BME280;52544;48.116;11.660;2023-02-22T06:08:31;95409.25;;;1.97;92.70
65800;BME280;52544;48.116;11.660;2023-02-22T06:10:57;95414.97;;;1.88;92.75
65800;BME280;52544;48.116;11.660;2023-02-22T06:13:22;95414.72;;;1.93;92.36
65800;BME280;52544;48.116;11.660;2023-02-22T06:15:48;95416.31;;;1.95;92.37
65800;BME280;52544;48.116;11.660;2023-02-22T06:18:13;95411.31;;;1.91;92.79
65800;BME280;52544;48.116;11.660;2023-02-22T06:20:39;95413.78;;;1.94;92.23
65800;BME280;52544;48.116;11.660;2023-02-22T06:23:04;95420.66;;;1.95;91.89
65800;BME280;52544;48.116;11.660;2023-02-22T06:25:30;95410.50;;;2.06;92.48
65800;BME280;52544;48.116;11.660;2023-02-22T06:27:56;95418.16;;;1.93;92.02
65800;BME280;52544;48.116;11.660;2023-02-22T06:30:22;95415.19;;;1.99;92.33
65800;BME280;52544;48.116;11.660;2023-02-22T06:32:48;95417.66;;;2.03;91.87
65800;BME280;52544;48.116;11.660;2023-02-22T06:35:15;95426.75;;;2.11;91.15
65800;BME280;52544;48.116;11.660;2023-02-22T06:37:40;95423.34;;;1.78;91.96
65800;BME280;52544;48.116;11.660;2023-02-22T06:40:06;95433.97;;;1.74;93.56
65800;BME280;52544;48.116;11.660;2023-02-22T06:42:32;95435.34;;;1.97;93.01
65800;BME280;52544;48.116;11.660;2023-02-22T06:44:57;95431.13;;;1.95;92.98
65800;BME280;52544;48.116;11.660;2023-02-22T06:47:23;95425.91;;;2.11;93.23
65800;BME280;52544;48.116;11.660;2023-02-22T06:49:56;95425.25;;;2.23;92.62
65800;BME280;52544;48.116;11.660;2023-02-22T06:52:22;95432.66;;;2.31;92.10
65800;BME280;52544;48.116;11.660;2023-02-22T06:54:48;95437.00;;;2.46;91.68
65800;BME280;52544;48.116;11.660;2023-02-22T06:57:13;95432.81;;;2.59;91.24
65800;BME280;52544;48.116;11.660;2023-02-22T06:59:39;95435.44;;;2.59;90.62
65800;BME280;52544;48.116;11.660;2023-02-22T07:02:05;95439.72;;;2.60;90.62
65800;BME280;52544;48.116;11.660;2023-02-22T07:04:30;95442.88;;;2.81;90.04
65800;BME280;52544;48.116;11.660;2023-02-22T07:06:55;95441.56;;;3.04;89.74
65800;BME280;52544;48.116;11.660;2023-02-22T07:09:21;95441.94;;;3.12;88.88
65800;BME280;52544;48.116;11.660;2023-02-22T07:11:46;95444.78;;;3.23;88.03
65800;BME280;52544;48.116;11.660;2023-02-22T07:14:12;95447.59;;;3.35;88.11
65800;BME280;52544;48.116;11.660;2023-02-22T07:16:37;95443.03;;;3.38;87.38
65800;BME280;52544;48.116;11.660;2023-02-22T07:19:03;95440.91;;;3.45;86.40
65800;BME280;52544;48.116;11.660;2023-02-22T07:21:28;95431.56;;;3.69;85.53
65800;BME280;52544;48.116;11.660;2023-02-22T07:23:56;95442.88;;;3.98;84.67
65800;BME280;52544;48.116;11.660;2023-02-22T07:26:23;95437.13;;;4.20;81.55
65800;BME280;52544;48.116;11.660;2023-02-22T07:28:49;95435.81;;;4.42;80.43
65800;BME280;52544;48.116;11.660;2023-02-22T07:31:15;95433.50;;;4.64;78.08
65800;BME280;52544;48.116;11.660;2023-02-22T07:33:41;95430.09;;;4.76;77.53
65800;BME280;52544;48.116;11.660;2023-02-22T07:36:07;95427.84;;;4.97;77.49
65800;BME280;52544;48.116;11.660;2023-02-22T07:38:32;95417.16;;;5.13;75.92
65800;BME280;52544;48.116;11.660;2023-02-22T07:40:58;95426.00;;;5.38;73.22
65800;BME280;52544;48.116;11.660;2023-02-22T07:43:28;95422.13;;;5.56;71.88
65800;BME280;52544;48.116;11.660;2023-02-22T07:45:55;95418.34;;;5.73;70.36
65800;BME280;52544;48.116;11.660;2023-02-22T07:48:23;95414.38;;;5.80;69.51
65800;BME280;52544;48.116;11.660;2023-02-22T07:50:49;95418.38;;;5.98;70.05
65800;BME280;52544;48.116;11.660;2023-02-22T07:53:22;95406.34;;;6.20;68.90
65800;BME280;52544;48.116;11.660;2023-02-22T07:55:48;95409.47;;;6.38;67.46
65800;BME280;52544;48.116;11.660;2023-02-22T07:58:17;95408.34;;;6.53;65.61
65800;BME280;52544;48.116;11.660;2023-02-22T08:00:43;95408.66;;;6.61;65.66
65800;BME280;52544;48.116;11.660;2023-02-22T08:03:12;95400.16;;;6.82;64.43
65800;BME280;52544;48.116;11.660;2023-02-22T08:05:39;95403.56;;;6.95;64.47
65800;BME280;52544;48.116;11.660;2023-02-22T08:08:06;95399.78;;;7.10;65.77
65800;BME280;52544;48.116;11.660;2023-02-22T08:10:33;95399.63;;;7.36;62.60
65800;BME280;52544;48.116;11.660;2023-02-22T08:12:59;95398.22;;;7.54;62.18
65800;BME280;52544;48.116;11.660;2023-02-22T08:15:28;95400.88;;;7.65;61.02
65800;BME280;52544;48.116;11.660;2023-02-22T08:17:54;95396.13;;;7.82;59.20
65800;BME280;52544;48.116;11.660;2023-02-22T08:20:20;95392.66;;;8.04;59.92
65800;BME280;52544;48.116;11.660;2023-02-22T08:22:46;95389.88;;;8.16;59.12
65800;BME280;52544;48.116;11.660;2023-02-22T08:25:13;95387.13;;;8.29;57.44
65800;BME280;52544;48.116;11.660;2023-02-22T08:27:40;95384.47;;;8.51;57.84
65800;BME280;52544;48.116;11.660;2023-02-22T08:30:06;95378.28;;;8.73;55.35
65800;BME280;52544;48.116;11.660;2023-02-22T08:32:32;95380.38;;;8.91;54.51
65800;BME280;52544;48.116;11.660;2023-02-22T08:34:57;95370.00;;;9.10;53.58
65800;BME280;52544;48.116;11.660;2023-02-22T08:37:23;95373.69;;;9.19;53.04
65800;BME280;52544;48.116;11.660;2023-02-22T08:39:48;95374.66;;;9.39;53.01
65800;BME280;52544;48.116;11.660;2023-02-22T08:42:14;95374.19;;;9.55;52.12
65800;BME280;52544;48.116;11.660;2023-02-22T08:44:39;95367.66;;;9.80;52.68
65800;BME280;52544;48.116;11.660;2023-02-22T08:47:05;95368.19;;;10.04;50.66
65800;BME280;52544;48.116;11.660;2023-02-22T08:49:31;95362.03;;;10.24;51.21
65800;BME280;52544;48.116;11.660;2023-02-22T08:51:57;95360.13;;;10.36;48.66
65800;BME280;52544;48.116;11.660;2023-02-22T08:54:22;95355.53;;;10.38;47.82
65800;BME280;52544;48.116;11.660;2023-02-22T08:56:48;95358.03;;;10.40;47.49
65800;BME280;52544;48.116;11.660;2023-02-22T08:59:14;95359.03;;;10.48;47.25
65800;BME280;52544;48.116;11.660;2023-02-22T09:01:40;95357.53;;;10.65;46.59
65800;BME280;52544;48.116;11.660;2023-02-22T09:04:05;95363.81;;;10.74;44.86
65800;BME280;52544;48.116;11.660;2023-02-22T09:06:31;95353.53;;;10.81;45.37
65800;BME280;52544;48.116;11.660;2023-02-22T09:08:57;95346.84;;;10.76;45.03
65800;BME280;52544;48.116;11.660;2023-02-22T09:11:22;95359.38;;;10.94;44.97
65800;BME280;52544;48.116;11.660;2023-02-22T09:13:48;95352.84;;;10.98;44.72
65800;BME280;52544;48.116;11.660;2023-02-22T09:16:14;95341.28;;;11.09;44.78
65800;BME280;52544;48.116;11.660;2023-02-22T09:18:39;95349.88;;;11.40;45.17
65800;BME280;52544;48.116;11.660;2023-02-22T09:21:05;95350.94;;;11.66;44.19
65800;BME280;52544;48.116;11.660;2023-02-22T09:23:31;95342.28;;;11.84;44.20
65800;BME280;52544;48.116;11.660;2023-02-22T09:25:56;95341.69;;;11.99;44.21
65800;BME280;52544;48.116;11.660;2023-02-22T09:28:26;95332.53;;;12.39;44.31
65800;BME280;52544;48.116;11.660;2023-02-22T09:30:52;95335.09;;;12.59;43.42
65800;BME280;52544;48.116;11.660;2023-02-22T09:33:18;95330.88;;;12.84;43.33
65800;BME280;52544;48.116;11.660;2023-02-22T09:35:46;95334.59;;;13.09;42.68
65800;BME280;52544;48.116;11.660;2023-02-22T09:38:14;95328.38;;;13.36;41.08
65800;BME280;52544;48.116;11.660;2023-02-22T09:40:42;95332.72;;;13.63;40.76
65800;BME280;52544;48.116;11.660;2023-02-22T09:48:33;95317.25;;;14.18;40.30
65800;BME280;52544;48.116;11.660;2023-02-22T09:51:02;95323.00;;;14.48;39.06
65800;BME280;52544;48.116;11.660;2023-02-22T09:53:42;95321.78;;;14.68;38.95
65800;BME280;52544;48.116;11.660;2023-02-22T09:56:10;95321.16;;;14.91;39.53
65800;BME280;52544;48.116;11.660;2023-02-22T09:58:43;95319.22;;;15.17;37.60
65800;BME280;52544;48.116;11.660;2023-02-22T10:01:33;95315.22;;;15.38;37.41
65800;BME280;52544;48.116;11.660;2023-02-22T10:04:20;95313.53;;;15.45;36.55
65800;BME280;52544;48.116;11.660;2023-02-22T10:06:59;95312.19;;;15.57;37.99
65800;BME280;52544;48.116;11.660;2023-02-22T10:09:31;95314.22;;;15.63;35.97
65800;BME280;52544;48.116;11.660;2023-02-22T10:12:04;95296.16;;;15.98;36.45
65800;BME280;52544;48.116;11.660;2023-02-22T10:15:17;95297.03;;;16.30;36.12
65800;BME280;52544;48.116;11.660;2023-02-22T10:17:59;95296.59;;;16.57;35.98
65800;BME280;52544;48.116;11.660;2023-02-22T10:23:37;95288.66;;;16.72;36.35
65800;BME280;52544;48.116;11.660;2023-02-22T10:26:24;95288.59;;;16.88;36.42
65800;BME280;52544;48.116;11.660;2023-02-22T10:28:54;95286.41;;;17.15;36.88
65800;BME280;52544;48.116;11.660;2023-02-22T10:31:24;95285.03;;;17.42;36.24
65800;BME280;52544;48.116;11.660;2023-02-22T10:33:57;95278.69;;;17.81;34.55
65800;BME280;52544;48.116;11.660;2023-02-22T10:36:24;95281.97;;;17.45;34.50
65800;BME280;52544;48.116;11.660;2023-02-22T10:38:54;95280.50;;;17.42;34.51
65800;BME280;52544;48.116;11.660;2023-02-22T10:41:37;95273.81;;;17.23;34.80
65800;BME280;52544;48.116;11.660;2023-02-22T10:44:05;95277.00;;;17.42;34.37
65800;BME280;52544;48.116;11.660;2023-02-22T10:46:32;95277.22;;;17.17;34.59
65800;BME280;52544;48.116;11.660;2023-02-22T10:49:04;95268.56;;;17.07;34.69
65800;BME280;52544;48.116;11.660;2023-02-22T10:51:33;95277.44;;;17.31;34.24
65800;BME280;52544;48.116;11.660;2023-02-22T10:56:46;95260.53;;;17.68;35.03
65800;BME280;52544;48.116;11.660;2023-02-22T10:59:34;95267.50;;;17.77;34.30
65800;BME280;52544;48.116;11.660;2023-02-22T11:02:07;95259.47;;;17.92;33.74
65800;BME280;52544;48.116;11.660;2023-02-22T11:04:52;95261.41;;;18.13;33.00
65800;BME280;52544;48.116;11.660;2023-02-22T11:07:29;95250.44;;;18.22;33.09
65800;BME280;52544;48.116;11.660;2023-02-22T11:09:56;95256.25;;;18.11;35.33
65800;BME280;52544;48.116;11.660;2023-02-22T11:14:52;95251.00;;;18.03;34.70
65800;BME280;52544;48.116;11.660;2023-02-22T11:17:30;95243.22;;;18.08;35.93
65800;BME280;52544;48.116;11.660;2023-02-22T11:19:56;95242.66;;;18.28;34.76
65800;BME280;52544;48.116;11.660;2023-02-22T11:22:56;95230.50;;;18.10;36.14
65800;BME280;52544;48.116;11.660;2023-02-22T11:25:29;95235.41;;;18.07;34.43
65800;BME280;52544;48.116;11.660;2023-02-22T11:28:08;95229.47;;;17.96;35.67
65800;BME280;52544;48.116;11.660;2023-02-22T11:30:35;95223.75;;;17.99;33.48
65800;BME280;52544;48.116;11.660;2023-02-22T11:35:36;95207.13;;;18.19;33.37
65800;BME280;52544;48.116;11.660;2023-02-22T11:38:19;95218.88;;;18.54;33.75
65800;BME280;52544;48.116;11.660;2023-02-22T11:40:45;95215.00;;;18.57;32.40
65800;BME280;52544;48.116;11.660;2023-02-22T11:43:18;95198.06;;;18.56;32.48
65800;BME280;52544;48.116;11.660;2023-02-22T11:46:19;95198.84;;;18.50;33.57
65800;BME280;52544;48.116;11.660;2023-02-22T11:49:00;95207.63;;;18.44;31.98
65800;BME280;52544;48.116;11.660;2023-02-22T11:54:30;95192.38;;;17.93;33.79
65800;BME280;52544;48.116;11.660;2023-02-22T11:57:13;95186.38;;;18.06;34.61
65800;BME280;52544;48.116;11.660;2023-02-22T12:08:08;95191.53;;;18.22;34.38
65800;BME280;52544;48.116;11.660;2023-02-22T12:17:17;95179.44;;;18.12;36.32
65800;BME280;52544;48.116;11.660;2023-02-22T12:19:22;95179.69;;;18.32;35.05
65800;BME280;52544;48.116;11.660;2023-02-22T12:21:59;95173.59;;;18.23;35.18
65800;BME280;52544;48.116;11.660;2023-02-22T12:24:33;95179.06;;;18.15;35.68
65800;BME280;52544;48.116;11.660;2023-02-22T12:27:05;95172.88;;;18.14;33.52
65800;BME280;52544;48.116;11.660;2023-02-22T12:29:46;95173.13;;;18.19;34.16
65800;BME280;52544;48.116;11.660;2023-02-22T12:34:58;95167.94;;;18.18;34.00
65800;BME280;52544;48.116;11.660;2023-02-22T12:37:37;95169.94;;;18.45;33.42
65800;BME280;52544;48.116;11.660;2023-02-22T12:43:16;95165.78;;;18.43;33.92
65800;BME280;52544;48.116;11.660;2023-02-22T12:45:56;95168.38;;;18.36;33.58
65800;BME280;52544;48.116;11.660;2023-02-22T12:48:47;95156.72;;;18.22;33.67
65800;BME280;52544;48.116;11.660;2023-02-22T12:51:33;95156.03;;;18.20;33.64
65800;BME280;52544;48.116;11.660;2023-02-22T12:54:25;95159.38;;;18.22;33.84
65800;BME280;52544;48.116;11.660;2023-02-22T12:57:08;95157.09;;;18.41;33.69
65800;BME280;52544;48.116;11.660;2023-02-22T12:59:48;95147.53;;;18.32;34.31
65800;BME280;52544;48.116;11.660;2023-02-22T13:02:57;95142.50;;;17.92;34.70
65800;BME280;52544;48.116;11.660;2023-02-22T13:05:25;95144.00;;;17.95;35.87
65800;BME280;52544;48.116;11.660;2023-02-22T13:13:03;95140.69;;;17.48;36.60
65800;BME280;52544;48.116;11.660;2023-02-22T13:18:30;95134.16;;;18.17;37.52
65800;BME280;52544;48.116;11.660;2023-02-22T13:21:26;95129.53;;;18.68;35.75
65800;BME280;52544;48.116;11.660;2023-02-22T13:26:51;95128.00;;;19.02;34.47
65800;BME280;52544;48.116;11.660;2023-02-22T13:29:21;95126.91;;;19.18;34.13
65800;BME280;52544;48.116;11.660;2023-02-22T13:37:31;95106.50;;;19.52;33.63
65800;BME280;52544;48.116;11.660;2023-02-22T13:40:19;95109.41;;;19.22;33.50
65800;BME280;52544;48.116;11.660;2023-02-22T13:43:11;95106.50;;;19.23;34.50
65800;BME280;52544;48.116;11.660;2023-02-22T13:51:32;95100.75;;;19.27;32.89
65800;BME280;52544;48.116;11.660;2023-02-22T13:53:54;95101.50;;;19.42;32.63
65800;BME280;52544;48.116;11.660;2023-02-22T13:56:23;95096.97;;;19.49;32.20
65800;BME280;52544;48.116;11.660;2023-02-22T13:59:26;95097.47;;;19.59;31.56
65800;BME280;52544;48.116;11.660;2023-02-22T14:01:52;95095.53;;;19.18;32.38
65800;BME280;52544;48.116;11.660;2023-02-22T14:06:57;95100.75;;;19.27;32.61
65800;BME280;52544;48.116;11.660;2023-02-22T14:09:45;95098.75;;;19.07;33.82
65800;BME280;52544;48.116;11.660;2023-02-22T14:17:36;95089.78;;;19.91;32.20
65800;BME280;52544;48.116;11.660;2023-02-22T14:22:42;95092.78;;;20.29;32.37
65800;BME280;52544;48.116;11.660;2023-02-22T14:25:30;95098.13;;;20.09;32.25
65800;BME280;52544;48.116;11.660;2023-02-22T14:27:57;95093.72;;;19.95;31.23
65800;BME280;52544;48.116;11.660;2023-02-22T14:30:28;95095.97;;;19.85;32.17
65800;BME280;52544;48.116;11.660;2023-02-22T14:32:55;95099.19;;;19.11;33.56
65800;BME280;52544;48.116;11.660;2023-02-22T14:35:22;95099.81;;;18.63;35.26
65800;BME280;52544;48.116;11.660;2023-02-22T14:37:54;95102.13;;;18.66;35.55
65800;BME280;52544;48.116;11.660;2023-02-22T14:40:26;95098.91;;;18.71;35.81
65800;BME280;52544;48.116;11.660;2023-02-22T14:43:20;95104.34;;;18.41;35.78
65800;BME280;52544;48.116;11.660;2023-02-22T14:45:51;95099.34;;;18.17;36.28
65800;BME280;52544;48.116;11.660;2023-02-22T14:48:20;95100.00;;;17.83;36.62